sensor_id;sensor_type;location;lat;lon;timestamp;pressure;altitude;pressure_sealevel;temperature;humidity
11099;BME280;12223;42.650;23.364;2024-01-30T00:02:15;96726.22;;;-1.72;65.23
11099;BME280;12223;42.650;23.364;2024-01-30T00:04:41;96731.97;;;-1.81;65.71
11099;BME280;12223;42.650;23.364;2024-01-30T00:07:06;96727.50;;;-1.99;65.83
11099;BME280;12223;42.650;23.364;2024-01-30T00:09:32;96732.69;;;-1.90;65.29
11099;BME280;12223;42.650;23.364;2024-01-30T00:11:57;96730.50;;;-2.05;66.32
11099;BME280;12223;42.650;23.364;2024-01-30T00:14:22;96729.94;;;-2.09;65.93
11099;BME280;12223;42.650;23.364;2024-01-30T00:16:50;96738.91;;;-1.72;64.87
11099;BME280;12223;42.650;23.364;2024-01-30T00:19:16;96736.59;;;-1.75;65.04
11099;BME280;12223;42.650;23.364;2024-01-30T00:21:41;96733.38;;;-1.99;65.74
11099;BME280;12223;42.650;23.364;2024-01-30T00:24:07;96732.31;;;-1.96;64.65
11099;BME280;12223;42.650;23.364;2024-01-30T00:26:32;96738.91;;;-2.05;66.62
11099;BME280;12223;42.650;23.364;2024-01-30T00:28:58;96743.97;;;-2.05;66.59
11099;BME280;12223;42.650;23.364;2024-01-30T00:31:24;96742.34;;;-2.06;66.45
11099;BME280;12223;42.650;23.364;2024-01-30T00:33:49;96738.78;;;-2.26;67.56
11099;BME280;12223;42.650;23.364;2024-01-30T00:36:14;96737.28;;;-2.28;67.24
11099;BME280;12223;42.650;23.364;2024-01-30T00:38:40;96745.06;;;-2.42;68.21
11099;BME280;12223;42.650;23.364;2024-01-30T00:41:07;96741.00;;;-2.67;68.58
11099;BME280;12223;42.650;23.364;2024-01-30T00:43:33;96741.00;;;-2.67;69.50
11099;BME280;12223;42.650;23.364;2024-01-30T00:45:58;96740.19;;;-2.68;70.60
11099;BME280;12223;42.650;23.364;2024-01-30T00:48:24;96733.69;;;-2.83;71.09
11099;BME280;12223;42.650;23.364;2024-01-30T00:50:49;96740.09;;;-2.90;71.14
11099;BME280;12223;42.650;23.364;2024-01-30T00:53:15;96746.50;;;-2.73;70.72
11099;BME280;12223;42.650;23.364;2024-01-30T00:55:40;96738.88;;;-2.84;71.04
11099;BME280;12223;42.650;23.364;2024-01-30T00:58:05;96730.00;;;-2.90;71.32
11099;BME280;12223;42.650;23.364;2024-01-30T01:00:32;96725.97;;;-2.92;71.28
11099;BME280;12223;42.650;23.364;2024-01-30T01:02:58;96720.47;;;-2.86;71.37
11099;BME280;12223;42.650;23.364;2024-01-30T01:05:24;96727.97;;;-2.74;70.26
11099;BME280;12223;42.650;23.364;2024-01-30T01:07:50;96726.47;;;-2.30;67.93
11099;BME280;12223;42.650;23.364;2024-01-30T01:10:19;96722.38;;;-2.66;68.74
11099;BME280;12223;42.650;23.364;2024-01-30T01:12:45;96724.50;;;-2.84;68.78
11099;BME280;12223;42.650;23.364;2024-01-30T01:15:11;96726.81;;;-2.81;69.81
11099;BME280;12223;42.650;23.364;2024-01-30T01:17:37;96729.41;;;-2.47;68.95
11099;BME280;12223;42.650;23.364;2024-01-30T01:20:04;96727.47;;;-2.90;69.89
11099;BME280;12223;42.650;23.364;2024-01-30T01:22:33;96726.41;;;-2.98;70.89
11099;BME280;12223;42.650;23.364;2024-01-30T01:24:59;96733.25;;;-2.77;70.09
11099;BME280;12223;42.650;23.364;2024-01-30T01:27:25;96733.44;;;-2.56;68.95
11099;BME280;12223;42.650;23.364;2024-01-30T01:29:51;96730.00;;;-2.44;69.11
11099;BME280;12223;42.650;23.364;2024-01-30T01:32:17;96734.69;;;-2.62;69.63
11099;BME280;12223;42.650;23.364;2024-01-30T01:34:42;96728.44;;;-2.80;69.46
11099;BME280;12223;42.650;23.364;2024-01-30T01:37:08;96735.72;;;-2.53;68.74
11099;BME280;12223;42.650;23.364;2024-01-30T01:39:34;96734.75;;;-2.39;67.74
11099;BME280;12223;42.650;23.364;2024-01-30T01:41:59;96737.41;;;-2.30;67.37
11099;BME280;12223;42.650;23.364;2024-01-30T01:44:24;96737.69;;;-2.57;68.26
11099;BME280;12223;42.650;23.364;2024-01-30T01:46:51;96737.69;;;-2.57;69.05
11099;BME280;12223;42.650;23.364;2024-01-30T01:49:16;96738.56;;;-2.69;68.67
11099;BME280;12223;42.650;23.364;2024-01-30T01:51:43;96739.31;;;-2.90;71.07
11099;BME280;12223;42.650;23.364;2024-01-30T01:54:10;96726.94;;;-2.82;71.37
11099;BME280;12223;42.650;23.364;2024-01-30T01:56:36;96734.28;;;-2.79;70.49
11099;BME280;12223;42.650;23.364;2024-01-30T01:59:08;96739.81;;;-3.09;73.07
11099;BME280;12223;42.650;23.364;2024-01-30T02:01:34;96738.19;;;-3.10;72.21
11099;BME280;12223;42.650;23.364;2024-01-30T02:04:01;96742.00;;;-3.05;71.56
11099;BME280;12223;42.650;23.364;2024-01-30T02:06:28;96744.63;;;-2.82;69.77
11099;BME280;12223;42.650;23.364;2024-01-30T02:08:54;96741.38;;;-2.61;68.79
11099;BME280;12223;42.650;23.364;2024-01-30T02:11:20;96748.75;;;-2.46;68.75
11099;BME280;12223;42.650;23.364;2024-01-30T02:13:46;96746.72;;;-2.19;65.89
11099;BME280;12223;42.650;23.364;2024-01-30T02:16:11;96744.66;;;-2.03;64.80
11099;BME280;12223;42.650;23.364;2024-01-30T02:18:37;96745.47;;;-2.02;65.99
11099;BME280;12223;42.650;23.364;2024-01-30T02:21:07;96743.50;;;-2.10;67.08
11099;BME280;12223;42.650;23.364;2024-01-30T02:23:34;96737.41;;;-2.07;67.83
11099;BME280;12223;42.650;23.364;2024-01-30T02:26:00;96738.19;;;-2.40;68.33
11099;BME280;12223;42.650;23.364;2024-01-30T02:28:26;96742.09;;;-2.36;68.58
11099;BME280;12223;42.650;23.364;2024-01-30T02:30:52;96740.44;;;-2.48;67.37
11099;BME280;12223;42.650;23.364;2024-01-30T02:33:17;96735.25;;;-2.58;67.95
11099;BME280;12223;42.650;23.364;2024-01-30T02:35:43;96740.72;;;-2.40;68.17
11099;BME280;12223;42.650;23.364;2024-01-30T02:38:08;96738.06;;;-2.28;66.48
11099;BME280;12223;42.650;23.364;2024-01-30T02:40:34;96734.50;;;-2.36;67.25
11099;BME280;12223;42.650;23.364;2024-01-30T02:43:00;96742.81;;;-2.23;65.91
11099;BME280;12223;42.650;23.364;2024-01-30T02:45:26;96733.13;;;-2.07;63.96
11099;BME280;12223;42.650;23.364;2024-01-30T02:47:51;96734.06;;;-2.08;65.08
11099;BME280;12223;42.650;23.364;2024-01-30T02:50:17;96742.47;;;-1.74;64.59
11099;BME280;12223;42.650;23.364;2024-01-30T02:52:42;96740.28;;;-1.79;62.65
11099;BME280;12223;42.650;23.364;2024-01-30T02:55:11;96735.31;;;-1.80;63.75
11099;BME280;12223;42.650;23.364;2024-01-30T02:57:37;96736.13;;;-1.80;63.02
11099;BME280;12223;42.650;23.364;2024-01-30T03:00:03;96736.81;;;-2.00;63.11
11099;BME280;12223;42.650;23.364;2024-01-30T03:02:29;96739.38;;;-2.00;63.48
11099;BME280;12223;42.650;23.364;2024-01-30T03:04:54;96731.75;;;-2.11;62.13
11099;BME280;12223;42.650;23.364;2024-01-30T03:07:20;96726.94;;;-2.14;65.51
11099;BME280;12223;42.650;23.364;2024-01-30T03:09:45;96731.75;;;-2.11;63.69
11099;BME280;12223;42.650;23.364;2024-01-30T03:12:11;96734.75;;;-2.06;64.96
11099;BME280;12223;42.650;23.364;2024-01-30T03:14:36;96725.28;;;-1.71;63.00
11099;BME280;12223;42.650;23.364;2024-01-30T03:17:02;96724.28;;;-1.90;62.96
11099;BME280;12223;42.650;23.364;2024-01-30T03:19:27;96736.13;;;-1.80;63.51
11099;BME280;12223;42.650;23.364;2024-01-30T03:21:53;96730.50;;;-1.72;62.84
11099;BME280;12223;42.650;23.364;2024-01-30T03:24:18;96726.59;;;-1.98;63.60
11099;BME280;12223;42.650;23.364;2024-01-30T03:26:44;96737.53;;;-1.98;62.14
11099;BME280;12223;42.650;23.364;2024-01-30T03:29:09;96727.38;;;-1.76;61.51
11099;BME280;12223;42.650;23.364;2024-01-30T03:31:34;96716.22;;;-1.95;62.23
11099;BME280;12223;42.650;23.364;2024-01-30T03:34:01;96721.72;;;-2.01;63.81
11099;BME280;12223;42.650;23.364;2024-01-30T03:36:26;96724.41;;;-2.03;64.35
11099;BME280;12223;42.650;23.364;2024-01-30T03:38:52;96724.97;;;-1.88;63.50
11099;BME280;12223;42.650;23.364;2024-01-30T03:41:17;96719.09;;;-1.66;62.33
11099;BME280;12223;42.650;23.364;2024-01-30T03:43:42;96720.00;;;-1.79;62.98
11099;BME280;12223;42.650;23.364;2024-01-30T03:46:08;96707.59;;;-1.93;65.19
11099;BME280;12223;42.650;23.364;2024-01-30T03:48:33;96717.81;;;-2.05;64.29
11099;BME280;12223;42.650;23.364;2024-01-30T03:50:59;96712.09;;;-2.07;64.81
11099;BME280;12223;42.650;23.364;2024-01-30T03:53:24;96707.84;;;-2.18;65.74
11099;BME280;12223;42.650;23.364;2024-01-30T03:55:50;96720.34;;;-2.17;66.03
11099;BME280;12223;42.650;23.364;2024-01-30T03:58:16;96710.69;;;-2.23;66.39
11099;BME280;12223;42.650;23.364;2024-01-30T04:00:41;96710.78;;;-1.91;66.40
11099;BME280;12223;42.650;23.364;2024-01-30T04:03:06;96714.28;;;-1.92;66.96
11099;BME280;12223;42.650;23.364;2024-01-30T04:05:32;96703.22;;;-2.13;67.19
11099;BME280;12223;42.650;23.364;2024-01-30T04:07:58;96707.59;;;-2.15;66.10
11099;BME280;12223;42.650;23.364;2024-01-30T04:10:23;96706.88;;;-1.95;66.04
11099;BME280;12223;42.650;23.364;2024-01-30T04:12:50;96708.59;;;-1.84;65.54
11099;BME280;12223;42.650;23.364;2024-01-30T04:15:16;96709.88;;;-1.79;64.54
11099;BME280;12223;42.650;23.364;2024-01-30T04:17:42;96712.28;;;-1.77;64.80
11099;BME280;12223;42.650;23.364;2024-01-30T04:20:08;96706.06;;;-1.73;66.16
11099;BME280;12223;42.650;23.364;2024-01-30T04:22:33;96706.63;;;-1.81;65.39
11099;BME280;12223;42.650;23.364;2024-01-30T04:24:58;96715.94;;;-1.59;64.89
11099;BME280;12223;42.650;23.364;2024-01-30T04:27:24;96712.50;;;-1.69;65.17
11099;BME280;12223;42.650;23.364;2024-01-30T04:29:49;96706.78;;;-1.93;64.38
11099;BME280;12223;42.650;23.364;2024-01-30T04:32:15;96720.72;;;-2.10;66.09
11099;BME280;12223;42.650;23.364;2024-01-30T04:34:40;96724.59;;;-2.17;67.60
11099;BME280;12223;42.650;23.364;2024-01-30T04:37:05;96718.16;;;-2.21;68.08
11099;BME280;12223;42.650;23.364;2024-01-30T04:39:33;96722.19;;;-2.30;68.38
11099;BME280;12223;42.650;23.364;2024-01-30T04:41:58;96719.78;;;-2.20;68.28
11099;BME280;12223;42.650;23.364;2024-01-30T04:44:24;96717.59;;;-2.36;68.23
11099;BME280;12223;42.650;23.364;2024-01-30T04:46:49;96723.81;;;-2.40;69.32
11099;BME280;12223;42.650;23.364;2024-01-30T04:49:15;96721.84;;;-2.36;67.04
11099;BME280;12223;42.650;23.364;2024-01-30T04:51:40;96728.41;;;-2.11;66.08
11099;BME280;12223;42.650;23.364;2024-01-30T04:54:05;96733.47;;;-2.11;66.63
11099;BME280;12223;42.650;23.364;2024-01-30T04:56:31;96733.38;;;-1.88;64.08
11099;BME280;12223;42.650;23.364;2024-01-30T04:58:56;96743.03;;;-1.71;63.12
11099;BME280;12223;42.650;23.364;2024-01-30T05:01:22;96737.19;;;-1.82;63.80
11099;BME280;12223;42.650;23.364;2024-01-30T05:03:47;96737.75;;;-2.01;63.41
11099;BME280;12223;42.650;23.364;2024-01-30T05:06:13;96740.06;;;-2.09;65.08
11099;BME280;12223;42.650;23.364;2024-01-30T05:08:38;96737.03;;;-2.25;65.20
11099;BME280;12223;42.650;23.364;2024-01-30T05:11:05;96739.44;;;-2.46;66.34
11099;BME280;12223;42.650;23.364;2024-01-30T05:13:31;96743.28;;;-2.64;68.24
11099;BME280;12223;42.650;23.364;2024-01-30T05:15:56;96746.16;;;-2.80;70.78
11099;BME280;12223;42.650;23.364;2024-01-30T05:18:22;96742.94;;;-2.71;70.29
11099;BME280;12223;42.650;23.364;2024-01-30T05:20:49;96748.97;;;-2.95;70.98
11099;BME280;12223;42.650;23.364;2024-01-30T05:23:15;96745.69;;;-3.09;71.55
11099;BME280;12223;42.650;23.364;2024-01-30T05:25:40;96744.81;;;-2.96;70.81
11099;BME280;12223;42.650;23.364;2024-01-30T05:28:05;96744.88;;;-3.09;70.91
11099;BME280;12223;42.650;23.364;2024-01-30T05:30:31;96751.09;;;-3.26;71.50
11099;BME280;12223;42.650;23.364;2024-01-30T05:32:56;96753.63;;;-3.26;71.92
11099;BME280;12223;42.650;23.364;2024-01-30T05:35:21;96744.00;;;-3.21;71.24
11099;BME280;12223;42.650;23.364;2024-01-30T05:37:50;96749.28;;;-3.48;70.60
11099;BME280;12223;42.650;23.364;2024-01-30T05:40:16;96747.28;;;-3.68;70.94
11099;BME280;12223;42.650;23.364;2024-01-30T05:42:42;96752.47;;;-3.69;70.39
11099;BME280;12223;42.650;23.364;2024-01-30T05:45:07;96756.06;;;-3.61;70.75
11099;BME280;12223;42.650;23.364;2024-01-30T05:47:34;96753.63;;;-3.50;71.22
11099;BME280;12223;42.650;23.364;2024-01-30T05:49:59;96759.25;;;-3.46;71.26
11099;BME280;12223;42.650;23.364;2024-01-30T05:52:25;96760.78;;;-3.44;70.67
11099;BME280;12223;42.650;23.364;2024-01-30T05:54:50;96750.13;;;-3.60;70.46
11099;BME280;12223;42.650;23.364;2024-01-30T05:57:16;96750.94;;;-3.72;70.65
11099;BME280;12223;42.650;23.364;2024-01-30T05:59:42;96755.81;;;-3.69;70.27
11099;BME280;12223;42.650;23.364;2024-01-30T06:02:10;96755.69;;;-3.67;69.86
11099;BME280;12223;42.650;23.364;2024-01-30T06:04:35;96752.34;;;-3.68;70.01
11099;BME280;12223;42.650;23.364;2024-01-30T06:07:01;96755.13;;;-3.47;69.71
11099;BME280;12223;42.650;23.364;2024-01-30T06:09:27;96753.69;;;-3.38;69.55
11099;BME280;12223;42.650;23.364;2024-01-30T06:11:53;96753.84;;;-3.29;69.03
11099;BME280;12223;42.650;23.364;2024-01-30T06:14:19;96761.13;;;-3.24;68.84
11099;BME280;12223;42.650;23.364;2024-01-30T06:16:44;96753.75;;;-3.27;68.17
11099;BME280;12223;42.650;23.364;2024-01-30T06:19:09;96746.53;;;-3.21;67.60
11099;BME280;12223;42.650;23.364;2024-01-30T06:21:35;96756.06;;;-3.24;67.26
11099;BME280;12223;42.650;23.364;2024-01-30T06:24:02;96751.78;;;-3.11;66.62
11099;BME280;12223;42.650;23.364;2024-01-30T06:26:27;96749.97;;;-2.98;66.11
11099;BME280;12223;42.650;23.364;2024-01-30T06:28:53;96749.78;;;-2.84;66.21
11099;BME280;12223;42.650;23.364;2024-01-30T06:31:18;96764.81;;;-2.70;65.79
11099;BME280;12223;42.650;23.364;2024-01-30T06:33:49;96757.22;;;-2.70;66.02
11099;BME280;12223;42.650;23.364;2024-01-30T06:36:14;96758.66;;;-2.78;66.42
11099;BME280;12223;42.650;23.364;2024-01-30T06:38:40;96758.47;;;-2.75;65.75
11099;BME280;12223;42.650;23.364;2024-01-30T06:41:06;96759.88;;;-2.60;66.49
11099;BME280;12223;42.650;23.364;2024-01-30T06:43:31;96753.31;;;-2.63;66.52
11099;BME280;12223;42.650;23.364;2024-01-30T06:45:57;96757.59;;;-2.52;65.17
11099;BME280;12223;42.650;23.364;2024-01-30T06:48:22;96764.06;;;-2.37;63.72
11099;BME280;12223;42.650;23.364;2024-01-30T06:50:47;96765.25;;;-0.77;59.45
11099;BME280;12223;42.650;23.364;2024-01-30T06:53:14;96761.81;;;2.38;50.25
11099;BME280;12223;42.650;23.364;2024-01-30T06:55:39;96759.47;;;4.88;42.94
11099;BME280;12223;42.650;23.364;2024-01-30T06:58:05;96765.53;;;6.49;37.75
11099;BME280;12223;42.650;23.364;2024-01-30T07:00:31;96769.72;;;7.57;34.39
11099;BME280;12223;42.650;23.364;2024-01-30T07:03:15;96768.38;;;8.50;32.02
11099;BME280;12223;42.650;23.364;2024-01-30T07:05:40;96764.22;;;9.36;31.16
11099;BME280;12223;42.650;23.364;2024-01-30T07:08:06;96769.78;;;9.18;30.46
11099;BME280;12223;42.650;23.364;2024-01-30T07:10:31;96765.16;;;8.78;30.78
11099;BME280;12223;42.650;23.364;2024-01-30T07:12:56;96759.28;;;9.20;29.84
11099;BME280;12223;42.650;23.364;2024-01-30T07:15:22;96763.84;;;10.44;28.33
11099;BME280;12223;42.650;23.364;2024-01-30T07:17:47;96765.84;;;10.89;26.06
11099;BME280;12223;42.650;23.364;2024-01-30T07:20:13;96760.41;;;10.30;26.60
11099;BME280;12223;42.650;23.364;2024-01-30T07:22:39;96766.84;;;10.41;26.41
11099;BME280;12223;42.650;23.364;2024-01-30T07:25:05;96766.59;;;10.36;27.41
11099;BME280;12223;42.650;23.364;2024-01-30T07:27:31;96766.66;;;11.83;24.88
11099;BME280;12223;42.650;23.364;2024-01-30T07:29:56;96771.16;;;13.49;23.67
11099;BME280;12223;42.650;23.364;2024-01-30T07:32:22;96767.75;;;13.49;22.41
11099;BME280;12223;42.650;23.364;2024-01-30T07:34:47;96769.84;;;11.99;25.67
11099;BME280;12223;42.650;23.364;2024-01-30T07:37:12;96769.66;;;12.07;23.79
11099;BME280;12223;42.650;23.364;2024-01-30T07:39:40;96764.22;;;11.62;25.71
11099;BME280;12223;42.650;23.364;2024-01-30T07:42:06;96764.97;;;11.30;25.29
11099;BME280;12223;42.650;23.364;2024-01-30T07:44:31;96772.81;;;8.86;29.40
11099;BME280;12223;42.650;23.364;2024-01-30T07:46:57;96768.50;;;6.68;32.13
11099;BME280;12223;42.650;23.364;2024-01-30T07:49:22;96768.56;;;5.65;34.64
11099;BME280;12223;42.650;23.364;2024-01-30T07:51:47;96770.91;;;5.01;36.24
11099;BME280;12223;42.650;23.364;2024-01-30T07:54:13;96768.13;;;3.41;39.94
11099;BME280;12223;42.650;23.364;2024-01-30T07:56:38;96778.06;;;4.48;36.85
11099;BME280;12223;42.650;23.364;2024-01-30T07:59:04;96776.94;;;6.46;33.21
11099;BME280;12223;42.650;23.364;2024-01-30T08:01:29;96767.63;;;7.60;31.73
11099;BME280;12223;42.650;23.364;2024-01-30T08:03:54;96765.09;;;9.07;29.71
11099;BME280;12223;42.650;23.364;2024-01-30T08:06:20;96768.56;;;10.34;27.71
11099;BME280;12223;42.650;23.364;2024-01-30T08:08:45;96761.09;;;11.73;25.34
11099;BME280;12223;42.650;23.364;2024-01-30T08:11:11;96758.94;;;13.25;23.27
11099;BME280;12223;42.650;23.364;2024-01-30T08:13:37;96756.88;;;13.90;22.13
11099;BME280;12223;42.650;23.364;2024-01-30T08:16:02;96760.84;;;12.14;24.62
11099;BME280;12223;42.650;23.364;2024-01-30T08:18:28;96757.44;;;11.48;26.28
11099;BME280;12223;42.650;23.364;2024-01-30T08:20:53;96766.03;;;14.35;21.16
11099;BME280;12223;42.650;23.364;2024-01-30T08:23:19;96757.31;;;12.80;22.76
11099;BME280;12223;42.650;23.364;2024-01-30T08:25:44;96762.38;;;13.06;22.50
11099;BME280;12223;42.650;23.364;2024-01-30T08:28:09;96760.59;;;13.44;21.95
11099;BME280;12223;42.650;23.364;2024-01-30T08:30:35;96758.03;;;13.69;21.35
11099;BME280;12223;42.650;23.364;2024-01-30T08:33:01;96763.88;;;11.78;24.26
11099;BME280;12223;42.650;23.364;2024-01-30T08:35:26;96760.94;;;9.98;26.98
11099;BME280;12223;42.650;23.364;2024-01-30T08:37:51;96769.91;;;10.02;26.41
11099;BME280;12223;42.650;23.364;2024-01-30T08:40:17;96775.13;;;8.66;28.58
11099;BME280;12223;42.650;23.364;2024-01-30T08:42:42;96774.50;;;7.83;29.60
11099;BME280;12223;42.650;23.364;2024-01-30T08:45:08;96771.56;;;7.48;30.79
11099;BME280;12223;42.650;23.364;2024-01-30T08:47:34;96775.47;;;5.88;34.85
11099;BME280;12223;42.650;23.364;2024-01-30T08:49:59;96774.19;;;6.87;32.66
11099;BME280;12223;42.650;23.364;2024-01-30T08:52:25;96788.38;;;6.74;32.48
11099;BME280;12223;42.650;23.364;2024-01-30T08:54:50;96778.19;;;5.87;34.55
11099;BME280;12223;42.650;23.364;2024-01-30T08:57:16;96784.72;;;5.65;33.83
11099;BME280;12223;42.650;23.364;2024-01-30T08:59:41;96785.97;;;5.21;34.79
11099;BME280;12223;42.650;23.364;2024-01-30T09:02:09;96781.69;;;4.71;36.24
11099;BME280;12223;42.650;23.364;2024-01-30T09:04:35;96778.31;;;4.28;37.46
11099;BME280;12223;42.650;23.364;2024-01-30T09:07:00;96783.22;;;3.96;38.53
11099;BME280;12223;42.650;23.364;2024-01-30T09:09:26;96786.13;;;3.75;38.12
11099;BME280;12223;42.650;23.364;2024-01-30T09:11:51;96787.59;;;3.07;39.96
11099;BME280;12223;42.650;23.364;2024-01-30T09:14:16;96781.94;;;3.13;40.68
11099;BME280;12223;42.650;23.364;2024-01-30T09:16:42;96778.06;;;3.62;38.77
11099;BME280;12223;42.650;23.364;2024-01-30T09:19:07;96768.59;;;3.80;38.09
11099;BME280;12223;42.650;23.364;2024-01-30T09:21:33;96768.41;;;3.03;40.97
11099;BME280;12223;42.650;23.364;2024-01-30T09:24:02;96763.47;;;1.73;43.18
11099;BME280;12223;42.650;23.364;2024-01-30T09:26:30;96759.50;;;1.98;43.01
11099;BME280;12223;42.650;23.364;2024-01-30T09:28:56;96759.50;;;1.22;45.20
11099;BME280;12223;42.650;23.364;2024-01-30T09:31:21;96754.75;;;2.22;43.39
11099;BME280;12223;42.650;23.364;2024-01-30T09:33:47;96759.69;;;3.06;40.82
11099;BME280;12223;42.650;23.364;2024-01-30T09:36:13;96760.47;;;2.88;41.08
11099;BME280;12223;42.650;23.364;2024-01-30T09:38:40;96759.00;;;3.04;41.50
11099;BME280;12223;42.650;23.364;2024-01-30T09:41:09;96757.34;;;3.30;40.41
11099;BME280;12223;42.650;23.364;2024-01-30T09:43:37;96755.50;;;3.22;40.87
11099;BME280;12223;42.650;23.364;2024-01-30T09:46:03;96756.84;;;3.26;40.48
11099;BME280;12223;42.650;23.364;2024-01-30T09:48:31;96753.34;;;3.53;39.40
11099;BME280;12223;42.650;23.364;2024-01-30T09:50:57;96756.03;;;3.26;40.89
11099;BME280;12223;42.650;23.364;2024-01-30T09:53:23;96751.28;;;3.13;41.31
11099;BME280;12223;42.650;23.364;2024-01-30T09:55:50;96749.84;;;2.66;43.70
11099;BME280;12223;42.650;23.364;2024-01-30T09:58:16;96750.44;;;1.86;45.58
11099;BME280;12223;42.650;23.364;2024-01-30T10:00:41;96748.06;;;0.78;49.22
11099;BME280;12223;42.650;23.364;2024-01-30T10:03:07;96740.88;;;1.03;48.68
11099;BME280;12223;42.650;23.364;2024-01-30T10:05:33;96737.94;;;1.07;48.35
11099;BME280;12223;42.650;23.364;2024-01-30T10:08:00;96737.81;;;1.09;48.40
11099;BME280;12223;42.650;23.364;2024-01-30T10:10:26;96735.09;;;0.72;49.38
11099;BME280;12223;42.650;23.364;2024-01-30T10:12:51;96727.06;;;0.96;49.17
11099;BME280;12223;42.650;23.364;2024-01-30T10:15:17;96735.50;;;1.35;47.63
11099;BME280;12223;42.650;23.364;2024-01-30T10:17:45;96724.94;;;1.30;46.83
11099;BME280;12223;42.650;23.364;2024-01-30T10:20:10;96736.97;;;0.99;47.97
11099;BME280;12223;42.650;23.364;2024-01-30T10:22:36;96733.47;;;1.57;46.87
11099;BME280;12223;42.650;23.364;2024-01-30T10:25:02;96740.00;;;1.69;46.87
11099;BME280;12223;42.650;23.364;2024-01-30T10:27:28;96736.03;;;1.38;47.54
11099;BME280;12223;42.650;23.364;2024-01-30T10:29:55;96737.41;;;1.13;47.67
11099;BME280;12223;42.650;23.364;2024-01-30T10:32:20;96730.69;;;1.03;49.02
11099;BME280;12223;42.650;23.364;2024-01-30T10:34:46;96732.66;;;0.80;49.98
11099;BME280;12223;42.650;23.364;2024-01-30T10:37:12;96731.94;;;0.39;50.77
11099;BME280;12223;42.650;23.364;2024-01-30T10:39:43;96727.88;;;0.37;50.42
11099;BME280;12223;42.650;23.364;2024-01-30T10:42:13;96728.81;;;0.85;49.37
11099;BME280;12223;42.650;23.364;2024-01-30T10:47:11;96724.00;;;0.92;49.54
11099;BME280;12223;42.650;23.364;2024-01-30T10:49:39;96727.47;;;1.01;48.88
11099;BME280;12223;42.650;23.364;2024-01-30T10:52:12;96723.16;;;1.20;48.67
11099;BME280;12223;42.650;23.364;2024-01-30T10:54:40;96723.84;;;1.22;47.93
11099;BME280;12223;42.650;23.364;2024-01-30T10:57:10;96721.00;;;1.35;48.09
11099;BME280;12223;42.650;23.364;2024-01-30T10:59:36;96714.47;;;1.33;47.80
11099;BME280;12223;42.650;23.364;2024-01-30T11:02:02;96715.28;;;1.33;48.17
11099;BME280;12223;42.650;23.364;2024-01-30T11:04:39;96715.66;;;1.38;47.28
11099;BME280;12223;42.650;23.364;2024-01-30T11:07:23;96707.97;;;1.57;47.47
11099;BME280;12223;42.650;23.364;2024-01-30T11:10:11;96704.03;;;1.82;46.74
11099;BME280;12223;42.650;23.364;2024-01-30T11:12:39;96704.19;;;2.08;46.31
11099;BME280;12223;42.650;23.364;2024-01-30T11:15:13;96702.75;;;2.33;45.59
11099;BME280;12223;42.650;23.364;2024-01-30T11:20:30;96695.75;;;1.70;46.52
11099;BME280;12223;42.650;23.364;2024-01-30T11:22:57;96695.53;;;2.01;46.59
11099;BME280;12223;42.650;23.364;2024-01-30T11:25:24;96699.34;;;2.14;46.07
11099;BME280;12223;42.650;23.364;2024-01-30T11:27:51;96699.44;;;2.23;45.74
11099;BME280;12223;42.650;23.364;2024-01-30T11:30:30;96690.56;;;1.99;46.32
11099;BME280;12223;42.650;23.364;2024-01-30T11:33:05;96697.53;;;1.97;46.55
11099;BME280;12223;42.650;23.364;2024-01-30T11:35:35;96695.19;;;1.86;46.77
11099;BME280;12223;42.650;23.364;2024-01-30T11:38:01;96702.00;;;1.86;47.45
11099;BME280;12223;42.650;23.364;2024-01-30T11:40:31;96696.78;;;1.78;47.33
11099;BME280;12223;42.650;23.364;2024-01-30T11:42:58;96693.00;;;1.45;47.57
11099;BME280;12223;42.650;23.364;2024-01-30T11:45:23;96696.88;;;1.49;47.55
11099;BME280;12223;42.650;23.364;2024-01-30T11:47:49;96690.94;;;1.58;48.04
11099;BME280;12223;42.650;23.364;2024-01-30T11:50:14;96693.03;;;1.82;47.87
11099;BME280;12223;42.650;23.364;2024-01-30T11:52:40;96687.31;;;1.97;47.24
11099;BME280;12223;42.650;23.364;2024-01-30T11:55:07;96677.94;;;1.98;46.32
11099;BME280;12223;42.650;23.364;2024-01-30T11:57:33;96685.28;;;2.10;46.91
11099;BME280;12223;42.650;23.364;2024-01-30T12:00:00;96677.38;;;2.31;45.99
11099;BME280;12223;42.650;23.364;2024-01-30T12:02:26;96671.56;;;2.39;46.07
11099;BME280;12223;42.650;23.364;2024-01-30T12:04:52;96668.06;;;2.40;46.08
11099;BME280;12223;42.650;23.364;2024-01-30T12:07:17;96666.03;;;2.43;45.42
11099;BME280;12223;42.650;23.364;2024-01-30T12:09:52;96662.94;;;2.22;46.72
11099;BME280;12223;42.650;23.364;2024-01-30T12:12:18;96656.13;;;2.13;46.48
11099;BME280;12223;42.650;23.364;2024-01-30T12:14:43;96647.22;;;2.27;46.12
11099;BME280;12223;42.650;23.364;2024-01-30T12:17:09;96656.03;;;2.32;46.05
11099;BME280;12223;42.650;23.364;2024-01-30T12:19:35;96635.13;;;2.46;46.50
11099;BME280;12223;42.650;23.364;2024-01-30T12:22:01;96633.31;;;2.56;45.34
11099;BME280;12223;42.650;23.364;2024-01-30T12:24:28;96632.81;;;2.53;45.37
11099;BME280;12223;42.650;23.364;2024-01-30T12:26:59;96628.72;;;2.42;45.59
11099;BME280;12223;42.650;23.364;2024-01-30T12:29:24;96635.56;;;2.42;45.87
11099;BME280;12223;42.650;23.364;2024-01-30T12:31:53;96634.25;;;2.55;45.97
11099;BME280;12223;42.650;23.364;2024-01-30T12:34:18;96629.78;;;2.22;46.20
11099;BME280;12223;42.650;23.364;2024-01-30T12:36:47;96630.47;;;1.87;47.13
11099;BME280;12223;42.650;23.364;2024-01-30T12:39:13;96620.72;;;1.46;47.82
11099;BME280;12223;42.650;23.364;2024-01-30T12:41:40;96620.25;;;1.69;47.66
11099;BME280;12223;42.650;23.364;2024-01-30T12:44:05;96621.44;;;1.75;47.22
11099;BME280;12223;42.650;23.364;2024-01-30T12:46:31;96626.19;;;1.88;46.72
11099;BME280;12223;42.650;23.364;2024-01-30T12:48:56;96622.41;;;1.92;46.60
11099;BME280;12223;42.650;23.364;2024-01-30T12:51:22;96619.31;;;1.98;48.38
11099;BME280;12223;42.650;23.364;2024-01-30T12:53:47;96616.19;;;2.04;46.78
11099;BME280;12223;42.650;23.364;2024-01-30T12:56:13;96612.75;;;2.23;46.46